sensor_id;sensor_type;location;lat;lon;timestamp;P1;durP1;ratioP1;P2;durP2;ratioP2
16502;SDS011;53067;48.114;11.694;2023-05-17T00:00:20;4.57;;;2.63;;
16502;SDS011;53067;48.114;11.694;2023-05-17T00:02:42;3.70;;;2.13;;
16502;SDS011;53067;48.114;11.694;2023-05-17T00:05:09;2.90;;;2.30;;
16502;SDS011;53067;48.114;11.694;2023-05-17T00:07:37;4.97;;;2.27;;
16502;SDS011;53067;48.114;11.694;2023-05-17T00:10:05;6.53;;;2.60;;
16502;SDS011;53067;48.114;11.694;2023-05-17T00:12:33;3.83;;;2.70;;
16502;SDS011;53067;48.114;11.694;2023-05-17T00:15:00;2.70;;;2.13;;
16502;SDS011;53067;48.114;11.694;2023-05-17T00:17:28;2.63;;;2.13;;
16502;SDS011;53067;48.114;11.694;2023-05-17T00:19:56;5.10;;;2.40;;
16502;SDS011;53067;48.114;11.694;2023-05-17T00:22:23;4.30;;;2.23;;
16502;SDS011;53067;48.114;11.694;2023-05-17T00:24:51;4.67;;;2.37;;
16502;SDS011;53067;48.114;11.694;2023-05-17T00:27:18;3.10;;;2.30;;
16502;SDS011;53067;48.114;11.694;2023-05-17T00:29:46;4.60;;;2.60;;
16502;SDS011;53067;48.114;11.694;2023-05-17T00:32:13;3.70;;;2.20;;
16502;SDS011;53067;48.114;11.694;2023-05-17T00:34:41;4.13;;;2.30;;
16502;SDS011;53067;48.114;11.694;2023-05-17T00:37:08;4.03;;;2.33;;
16502;SDS011;53067;48.114;11.694;2023-05-17T00:39:36;3.80;;;2.87;;
16502;SDS011;53067;48.114;11.694;2023-05-17T00:42:04;3.73;;;2.47;;
16502;SDS011;53067;48.114;11.694;2023-05-17T00:44:32;3.20;;;2.23;;
16502;SDS011;53067;48.114;11.694;2023-05-17T00:47:00;4.57;;;2.50;;
16502;SDS011;53067;48.114;11.694;2023-05-17T00:49:28;3.33;;;2.60;;
16502;SDS011;53067;48.114;11.694;2023-05-17T00:54:42;3.43;;;2.37;;
16502;SDS011;53067;48.114;11.694;2023-05-17T00:57:11;2.47;;;2.00;;
16502;SDS011;53067;48.114;11.694;2023-05-17T00:59:39;2.40;;;2.20;;
16502;SDS011;53067;48.114;11.694;2023-05-17T01:02:11;4.33;;;2.30;;
16502;SDS011;53067;48.114;11.694;2023-05-17T01:04:39;3.47;;;2.00;;
16502;SDS011;53067;48.114;11.694;2023-05-17T01:07:07;2.93;;;2.23;;
16502;SDS011;53067;48.114;11.694;2023-05-17T01:09:36;3.13;;;2.70;;
16502;SDS011;53067;48.114;11.694;2023-05-17T01:12:14;3.63;;;2.50;;
16502;SDS011;53067;48.114;11.694;2023-05-17T01:17:25;4.70;;;2.30;;
16502;SDS011;53067;48.114;11.694;2023-05-17T01:20:12;2.80;;;2.10;;
16502;SDS011;53067;48.114;11.694;2023-05-17T01:25:27;5.27;;;2.30;;
16502;SDS011;53067;48.114;11.694;2023-05-17T01:30:44;2.30;;;2.10;;
16502;SDS011;53067;48.114;11.694;2023-05-17T01:33:13;3.83;;;2.07;;
16502;SDS011;53067;48.114;11.694;2023-05-17T01:35:41;5.50;;;2.40;;
16502;SDS011;53067;48.114;11.694;2023-05-17T01:38:09;3.47;;;2.30;;
16502;SDS011;53067;48.114;11.694;2023-05-17T01:40:38;2.53;;;2.30;;
16502;SDS011;53067;48.114;11.694;2023-05-17T01:43:09;2.63;;;1.90;;
16502;SDS011;53067;48.114;11.694;2023-05-17T01:45:43;3.97;;;2.50;;
16502;SDS011;53067;48.114;11.694;2023-05-17T01:48:14;3.90;;;2.20;;
16502;SDS011;53067;48.114;11.694;2023-05-17T01:50:48;4.20;;;2.30;;
16502;SDS011;53067;48.114;11.694;2023-05-17T01:56:06;4.57;;;2.50;;
16502;SDS011;53067;48.114;11.694;2023-05-17T01:58:40;5.40;;;2.40;;
16502;SDS011;53067;48.114;11.694;2023-05-17T02:01:09;2.73;;;2.13;;
16502;SDS011;53067;48.114;11.694;2023-05-17T02:03:38;3.50;;;2.40;;
16502;SDS011;53067;48.114;11.694;2023-05-17T02:06:06;3.33;;;2.60;;
16502;SDS011;53067;48.114;11.694;2023-05-17T02:08:33;7.03;;;2.10;;
16502;SDS011;53067;48.114;11.694;2023-05-17T02:11:01;2.77;;;2.13;;
16502;SDS011;53067;48.114;11.694;2023-05-17T02:13:28;2.60;;;2.17;;
16502;SDS011;53067;48.114;11.694;2023-05-17T02:16:02;4.70;;;2.53;;
16502;SDS011;53067;48.114;11.694;2023-05-17T02:18:30;5.20;;;2.60;;
16502;SDS011;53067;48.114;11.694;2023-05-17T02:20:59;4.50;;;2.40;;
16502;SDS011;53067;48.114;11.694;2023-05-17T02:23:27;4.70;;;2.87;;
16502;SDS011;53067;48.114;11.694;2023-05-17T02:25:55;6.17;;;2.70;;
16502;SDS011;53067;48.114;11.694;2023-05-17T02:28:22;3.17;;;2.87;;
16502;SDS011;53067;48.114;11.694;2023-05-17T02:30:50;2.50;;;2.30;;
16502;SDS011;53067;48.114;11.694;2023-05-17T02:33:17;4.63;;;2.40;;
16502;SDS011;53067;48.114;11.694;2023-05-17T02:35:45;2.53;;;2.23;;
16502;SDS011;53067;48.114;11.694;2023-05-17T02:38:14;2.60;;;2.40;;
16502;SDS011;53067;48.114;11.694;2023-05-17T02:40:42;3.13;;;2.60;;
16502;SDS011;53067;48.114;11.694;2023-05-17T02:43:09;5.03;;;2.37;;
16502;SDS011;53067;48.114;11.694;2023-05-17T02:45:37;4.63;;;2.57;;
16502;SDS011;53067;48.114;11.694;2023-05-17T02:48:05;5.30;;;2.60;;
16502;SDS011;53067;48.114;11.694;2023-05-17T02:50:32;2.73;;;2.53;;
16502;SDS011;53067;48.114;11.694;2023-05-17T02:53:00;3.43;;;2.50;;
16502;SDS011;53067;48.114;11.694;2023-05-17T02:55:27;2.73;;;2.53;;
16502;SDS011;53067;48.114;11.694;2023-05-17T02:57:55;3.80;;;2.43;;
16502;SDS011;53067;48.114;11.694;2023-05-17T03:00:23;2.60;;;2.20;;
16502;SDS011;53067;48.114;11.694;2023-05-17T03:02:51;6.13;;;2.20;;
16502;SDS011;53067;48.114;11.694;2023-05-17T03:05:18;3.13;;;2.50;;
16502;SDS011;53067;48.114;11.694;2023-05-17T03:07:46;2.57;;;2.17;;
16502;SDS011;53067;48.114;11.694;2023-05-17T03:10:13;2.63;;;2.43;;
16502;SDS011;53067;48.114;11.694;2023-05-17T03:12:41;4.07;;;3.07;;
16502;SDS011;53067;48.114;11.694;2023-05-17T03:15:09;2.27;;;2.00;;
16502;SDS011;53067;48.114;11.694;2023-05-17T03:17:39;2.47;;;2.17;;
16502;SDS011;53067;48.114;11.694;2023-05-17T03:20:07;2.77;;;1.87;;
16502;SDS011;53067;48.114;11.694;2023-05-17T03:22:36;4.87;;;2.53;;
16502;SDS011;53067;48.114;11.694;2023-05-17T03:25:04;2.70;;;1.80;;
16502;SDS011;53067;48.114;11.694;2023-05-17T03:27:31;3.27;;;2.20;;
16502;SDS011;53067;48.114;11.694;2023-05-17T03:29:59;5.53;;;2.17;;
16502;SDS011;53067;48.114;11.694;2023-05-17T03:32:27;2.43;;;1.90;;
16502;SDS011;53067;48.114;11.694;2023-05-17T03:34:54;2.73;;;2.27;;
16502;SDS011;53067;48.114;11.694;2023-05-17T03:37:22;2.37;;;2.17;;
16502;SDS011;53067;48.114;11.694;2023-05-17T03:39:50;5.00;;;2.57;;
16502;SDS011;53067;48.114;11.694;2023-05-17T03:42:17;2.87;;;2.10;;
16502;SDS011;53067;48.114;11.694;2023-05-17T03:44:46;4.50;;;2.57;;
16502;SDS011;53067;48.114;11.694;2023-05-17T03:47:13;4.90;;;2.30;;
16502;SDS011;53067;48.114;11.694;2023-05-17T03:49:41;4.03;;;1.83;;
16502;SDS011;53067;48.114;11.694;2023-05-17T03:52:09;2.53;;;2.33;;
16502;SDS011;53067;48.114;11.694;2023-05-17T03:54:36;4.40;;;2.47;;
16502;SDS011;53067;48.114;11.694;2023-05-17T03:57:04;3.93;;;2.27;;
16502;SDS011;53067;48.114;11.694;2023-05-17T03:59:31;3.43;;;2.10;;
16502;SDS011;53067;48.114;11.694;2023-05-17T04:01:59;2.43;;;2.00;;
16502;SDS011;53067;48.114;11.694;2023-05-17T04:04:26;2.87;;;2.07;;
16502;SDS011;53067;48.114;11.694;2023-05-17T04:06:54;2.07;;;1.97;;
16502;SDS011;53067;48.114;11.694;2023-05-17T04:12:02;2.83;;;2.20;;
16502;SDS011;53067;48.114;11.694;2023-05-17T04:14:29;2.33;;;1.93;;
16502;SDS011;53067;48.114;11.694;2023-05-17T04:16:57;1.97;;;1.73;;
16502;SDS011;53067;48.114;11.694;2023-05-17T04:19:24;4.30;;;2.00;;
16502;SDS011;53067;48.114;11.694;2023-05-17T04:21:52;4.13;;;2.40;;
16502;SDS011;53067;48.114;11.694;2023-05-17T04:24:21;2.30;;;2.07;;
16502;SDS011;53067;48.114;11.694;2023-05-17T04:26:48;4.77;;;2.10;;
16502;SDS011;53067;48.114;11.694;2023-05-17T04:29:16;3.20;;;2.00;;
16502;SDS011;53067;48.114;11.694;2023-05-17T04:31:43;1.83;;;1.70;;
16502;SDS011;53067;48.114;11.694;2023-05-17T04:34:12;2.50;;;1.63;;
16502;SDS011;53067;48.114;11.694;2023-05-17T04:36:40;1.87;;;1.73;;
16502;SDS011;53067;48.114;11.694;2023-05-17T04:39:08;3.80;;;1.80;;
16502;SDS011;53067;48.114;11.694;2023-05-17T04:41:36;3.77;;;1.93;;
16502;SDS011;53067;48.114;11.694;2023-05-17T04:44:04;2.30;;;1.80;;
16502;SDS011;53067;48.114;11.694;2023-05-17T04:46:35;3.00;;;1.97;;
16502;SDS011;53067;48.114;11.694;2023-05-17T04:49:03;2.67;;;1.80;;
16502;SDS011;53067;48.114;11.694;2023-05-17T04:51:30;2.13;;;1.83;;
16502;SDS011;53067;48.114;11.694;2023-05-17T04:53:58;2.47;;;1.90;;
16502;SDS011;53067;48.114;11.694;2023-05-17T04:56:26;2.03;;;1.80;;
16502;SDS011;53067;48.114;11.694;2023-05-17T04:58:53;2.77;;;2.00;;
16502;SDS011;53067;48.114;11.694;2023-05-17T05:01:21;4.80;;;2.17;;
16502;SDS011;53067;48.114;11.694;2023-05-17T05:03:48;3.70;;;1.63;;
16502;SDS011;53067;48.114;11.694;2023-05-17T05:06:16;1.87;;;1.70;;
16502;SDS011;53067;48.114;11.694;2023-05-17T05:08:44;2.43;;;1.93;;
16502;SDS011;53067;48.114;11.694;2023-05-17T05:11:11;2.93;;;2.00;;
16502;SDS011;53067;48.114;11.694;2023-05-17T05:13:39;2.60;;;1.73;;
16502;SDS011;53067;48.114;11.694;2023-05-17T05:16:07;3.10;;;1.53;;
16502;SDS011;53067;48.114;11.694;2023-05-17T05:18:34;2.67;;;1.90;;
16502;SDS011;53067;48.114;11.694;2023-05-17T05:21:02;3.40;;;1.60;;
16502;SDS011;53067;48.114;11.694;2023-05-17T05:23:29;1.70;;;1.60;;
16502;SDS011;53067;48.114;11.694;2023-05-17T05:25:57;3.40;;;1.80;;
16502;SDS011;53067;48.114;11.694;2023-05-17T05:28:24;2.43;;;1.90;;
16502;SDS011;53067;48.114;11.694;2023-05-17T05:30:59;2.50;;;2.00;;
16502;SDS011;53067;48.114;11.694;2023-05-17T05:33:26;4.33;;;1.80;;
16502;SDS011;53067;48.114;11.694;2023-05-17T05:35:54;2.00;;;1.80;;
16502;SDS011;53067;48.114;11.694;2023-05-17T05:38:21;3.53;;;2.00;;
16502;SDS011;53067;48.114;11.694;2023-05-17T05:40:49;5.20;;;2.17;;
16502;SDS011;53067;48.114;11.694;2023-05-17T05:43:16;3.53;;;2.20;;
16502;SDS011;53067;48.114;11.694;2023-05-17T05:45:44;2.57;;;1.77;;
16502;SDS011;53067;48.114;11.694;2023-05-17T05:48:12;3.40;;;1.83;;
16502;SDS011;53067;48.114;11.694;2023-05-17T05:50:40;1.97;;;1.70;;
16502;SDS011;53067;48.114;11.694;2023-05-17T05:53:12;3.63;;;2.13;;
16502;SDS011;53067;48.114;11.694;2023-05-17T05:55:40;2.40;;;1.80;;
16502;SDS011;53067;48.114;11.694;2023-05-17T05:58:08;3.63;;;1.73;;
16502;SDS011;53067;48.114;11.694;2023-05-17T06:00:35;6.17;;;2.07;;
16502;SDS011;53067;48.114;11.694;2023-05-17T06:03:03;4.93;;;1.73;;
16502;SDS011;53067;48.114;11.694;2023-05-17T06:05:31;1.93;;;1.80;;
16502;SDS011;53067;48.114;11.694;2023-05-17T06:07:58;3.33;;;2.30;;
16502;SDS011;53067;48.114;11.694;2023-05-17T06:10:26;5.07;;;2.00;;
16502;SDS011;53067;48.114;11.694;2023-05-17T06:12:53;3.10;;;1.73;;
16502;SDS011;53067;48.114;11.694;2023-05-17T06:15:21;4.20;;;1.90;;
16502;SDS011;53067;48.114;11.694;2023-05-17T06:17:48;1.93;;;1.70;;
16502;SDS011;53067;48.114;11.694;2023-05-17T06:20:16;2.13;;;1.57;;
16502;SDS011;53067;48.114;11.694;2023-05-17T06:22:43;1.93;;;1.73;;
16502;SDS011;53067;48.114;11.694;2023-05-17T06:25:11;4.87;;;1.70;;
16502;SDS011;53067;48.114;11.694;2023-05-17T06:27:39;1.90;;;1.60;;
16502;SDS011;53067;48.114;11.694;2023-05-17T06:30:07;3.93;;;2.00;;
16502;SDS011;53067;48.114;11.694;2023-05-17T06:32:35;7.37;;;2.07;;
16502;SDS011;53067;48.114;11.694;2023-05-17T06:35:03;2.30;;;1.97;;
16502;SDS011;53067;48.114;11.694;2023-05-17T06:37:31;4.90;;;2.00;;
16502;SDS011;53067;48.114;11.694;2023-05-17T06:40:02;3.83;;;1.90;;
16502;SDS011;53067;48.114;11.694;2023-05-17T06:42:51;4.27;;;1.80;;
16502;SDS011;53067;48.114;11.694;2023-05-17T06:45:18;3.77;;;1.60;;
16502;SDS011;53067;48.114;11.694;2023-05-17T06:47:46;4.93;;;1.93;;
16502;SDS011;53067;48.114;11.694;2023-05-17T06:50:14;3.33;;;1.57;;
16502;SDS011;53067;48.114;11.694;2023-05-17T06:52:41;3.07;;;1.60;;
16502;SDS011;53067;48.114;11.694;2023-05-17T06:55:09;2.37;;;1.57;;
16502;SDS011;53067;48.114;11.694;2023-05-17T06:57:37;2.27;;;1.57;;
16502;SDS011;53067;48.114;11.694;2023-05-17T07:00:04;2.27;;;1.60;;
16502;SDS011;53067;48.114;11.694;2023-05-17T07:02:34;2.90;;;1.90;;
16502;SDS011;53067;48.114;11.694;2023-05-17T07:05:03;4.20;;;1.50;;
16502;SDS011;53067;48.114;11.694;2023-05-17T07:07:40;2.97;;;1.60;;
16502;SDS011;53067;48.114;11.694;2023-05-17T07:10:08;4.83;;;1.60;;
16502;SDS011;53067;48.114;11.694;2023-05-17T07:12:36;2.23;;;1.67;;
16502;SDS011;53067;48.114;11.694;2023-05-17T07:15:04;2.57;;;1.70;;
16502;SDS011;53067;48.114;11.694;2023-05-17T07:17:32;3.37;;;1.97;;
16502;SDS011;53067;48.114;11.694;2023-05-17T07:19:59;2.87;;;1.60;;
16502;SDS011;53067;48.114;11.694;2023-05-17T07:22:27;4.37;;;2.07;;
16502;SDS011;53067;48.114;11.694;2023-05-17T07:24:55;2.57;;;1.30;;
16502;SDS011;53067;48.114;11.694;2023-05-17T07:27:22;2.23;;;1.90;;
16502;SDS011;53067;48.114;11.694;2023-05-17T07:29:50;5.13;;;1.60;;
16502;SDS011;53067;48.114;11.694;2023-05-17T07:32:19;3.50;;;1.90;;
16502;SDS011;53067;48.114;11.694;2023-05-17T07:34:46;2.53;;;2.00;;
16502;SDS011;53067;48.114;11.694;2023-05-17T07:37:14;2.30;;;1.63;;
16502;SDS011;53067;48.114;11.694;2023-05-17T07:39:41;2.63;;;1.43;;
16502;SDS011;53067;48.114;11.694;2023-05-17T07:42:09;1.90;;;1.70;;
16502;SDS011;53067;48.114;11.694;2023-05-17T07:44:36;1.80;;;1.53;;
16502;SDS011;53067;48.114;11.694;2023-05-17T07:47:04;2.97;;;1.50;;
16502;SDS011;53067;48.114;11.694;2023-05-17T07:49:32;2.40;;;1.57;;
16502;SDS011;53067;48.114;11.694;2023-05-17T07:51:59;1.63;;;1.53;;
16502;SDS011;53067;48.114;11.694;2023-05-17T07:54:27;2.93;;;1.50;;
16502;SDS011;53067;48.114;11.694;2023-05-17T07:56:55;2.60;;;1.63;;
16502;SDS011;53067;48.114;11.694;2023-05-17T07:59:22;4.23;;;2.23;;
16502;SDS011;53067;48.114;11.694;2023-05-17T08:01:50;4.47;;;1.80;;
16502;SDS011;53067;48.114;11.694;2023-05-17T08:04:27;2.17;;;1.37;;
16502;SDS011;53067;48.114;11.694;2023-05-17T08:06:54;2.33;;;1.70;;
16502;SDS011;53067;48.114;11.694;2023-05-17T08:09:22;4.30;;;1.60;;
16502;SDS011;53067;48.114;11.694;2023-05-17T08:11:50;2.90;;;1.47;;
16502;SDS011;53067;48.114;11.694;2023-05-17T08:14:17;2.63;;;1.37;;
16502;SDS011;53067;48.114;11.694;2023-05-17T08:16:46;2.90;;;1.90;;
16502;SDS011;53067;48.114;11.694;2023-05-17T08:19:16;3.50;;;1.70;;
16502;SDS011;53067;48.114;11.694;2023-05-17T08:21:45;2.53;;;2.03;;
16502;SDS011;53067;48.114;11.694;2023-05-17T08:24:14;2.93;;;1.43;;
16502;SDS011;53067;48.114;11.694;2023-05-17T08:26:42;4.33;;;1.60;;
16502;SDS011;53067;48.114;11.694;2023-05-17T08:29:09;2.80;;;1.57;;
16502;SDS011;53067;48.114;11.694;2023-05-17T08:31:37;2.50;;;1.50;;
16502;SDS011;53067;48.114;11.694;2023-05-17T08:34:04;2.63;;;1.60;;
16502;SDS011;53067;48.114;11.694;2023-05-17T08:36:35;4.87;;;1.87;;
16502;SDS011;53067;48.114;11.694;2023-05-17T08:39:03;1.70;;;1.60;;
16502;SDS011;53067;48.114;11.694;2023-05-17T08:41:32;4.37;;;2.00;;
16502;SDS011;53067;48.114;11.694;2023-05-17T08:44:00;3.63;;;1.70;;
16502;SDS011;53067;48.114;11.694;2023-05-17T08:46:29;2.57;;;1.70;;
16502;SDS011;53067;48.114;11.694;2023-05-17T08:48:59;3.53;;;1.77;;
16502;SDS011;53067;48.114;11.694;2023-05-17T08:51:28;4.07;;;1.77;;
16502;SDS011;53067;48.114;11.694;2023-05-17T08:53:57;2.23;;;1.83;;
16502;SDS011;53067;48.114;11.694;2023-05-17T08:56:25;3.97;;;1.80;;
16502;SDS011;53067;48.114;11.694;2023-05-17T08:58:56;3.03;;;1.40;;
16502;SDS011;53067;48.114;11.694;2023-05-17T09:01:24;3.63;;;2.13;;
16502;SDS011;53067;48.114;11.694;2023-05-17T09:03:54;3.47;;;1.70;;
16502;SDS011;53067;48.114;11.694;2023-05-17T09:06:22;3.27;;;1.97;;
16502;SDS011;53067;48.114;11.694;2023-05-17T09:08:50;2.27;;;1.60;;
16502;SDS011;53067;48.114;11.694;2023-05-17T09:11:26;2.17;;;1.80;;
16502;SDS011;53067;48.114;11.694;2023-05-17T09:14:00;3.23;;;1.60;;
16502;SDS011;53067;48.114;11.694;2023-05-17T09:16:29;3.07;;;1.67;;
16502;SDS011;53067;48.114;11.694;2023-05-17T09:19:01;6.90;;;1.83;;
16502;SDS011;53067;48.114;11.694;2023-05-17T09:21:30;2.33;;;1.33;;
16502;SDS011;53067;48.114;11.694;2023-05-17T09:23:58;2.27;;;1.50;;
16502;SDS011;53067;48.114;11.694;2023-05-17T09:26:42;1.50;;;1.40;;
16502;SDS011;53067;48.114;11.694;2023-05-17T09:29:11;2.40;;;1.77;;
16502;SDS011;53067;48.114;11.694;2023-05-17T09:31:40;2.93;;;2.13;;
16502;SDS011;53067;48.114;11.694;2023-05-17T09:34:08;3.30;;;1.80;;
16502;SDS011;53067;48.114;11.694;2023-05-17T09:36:37;3.83;;;1.60;;
16502;SDS011;53067;48.114;11.694;2023-05-17T09:39:06;4.80;;;1.93;;
16502;SDS011;53067;48.114;11.694;2023-05-17T09:41:45;2.23;;;1.90;;
16502;SDS011;53067;48.114;11.694;2023-05-17T09:44:14;2.40;;;1.70;;
16502;SDS011;53067;48.114;11.694;2023-05-17T09:46:45;2.23;;;1.70;;
16502;SDS011;53067;48.114;11.694;2023-05-17T09:49:14;2.00;;;1.67;;
16502;SDS011;53067;48.114;11.694;2023-05-17T09:51:44;2.13;;;1.80;;
16502;SDS011;53067;48.114;11.694;2023-05-17T09:54:13;2.83;;;1.80;;
16502;SDS011;53067;48.114;11.694;2023-05-17T09:56:42;2.17;;;1.87;;
16502;SDS011;53067;48.114;11.694;2023-05-17T09:59:12;2.37;;;1.77;;
16502;SDS011;53067;48.114;11.694;2023-05-17T10:01:42;4.10;;;1.90;;
16502;SDS011;53067;48.114;11.694;2023-05-17T10:04:10;3.27;;;1.57;;
16502;SDS011;53067;48.114;11.694;2023-05-17T10:06:39;2.60;;;1.70;;
16502;SDS011;53067;48.114;11.694;2023-05-17T10:09:09;2.30;;;1.60;;
16502;SDS011;53067;48.114;11.694;2023-05-17T10:11:40;1.90;;;1.70;;
16502;SDS011;53067;48.114;11.694;2023-05-17T10:14:26;3.60;;;2.00;;
16502;SDS011;53067;48.114;11.694;2023-05-17T10:16:54;2.70;;;1.60;;
16502;SDS011;53067;48.114;11.694;2023-05-17T10:19:23;2.73;;;1.77;;
16502;SDS011;53067;48.114;11.694;2023-05-17T10:21:51;2.80;;;1.87;;
16502;SDS011;53067;48.114;11.694;2023-05-17T10:24:19;2.90;;;2.00;;
16502;SDS011;53067;48.114;11.694;2023-05-17T10:26:49;1.93;;;1.70;;
16502;SDS011;53067;48.114;11.694;2023-05-17T10:29:16;2.07;;;1.60;;
16502;SDS011;53067;48.114;11.694;2023-05-17T10:31:48;3.40;;;2.07;;
16502;SDS011;53067;48.114;11.694;2023-05-17T10:34:17;2.10;;;1.50;;
16502;SDS011;53067;48.114;11.694;2023-05-17T10:36:45;3.47;;;1.67;;
16502;SDS011;53067;48.114;11.694;2023-05-17T10:39:14;4.13;;;1.87;;
16502;SDS011;53067;48.114;11.694;2023-05-17T10:41:43;1.73;;;1.43;;
16502;SDS011;53067;48.114;11.694;2023-05-17T10:44:13;4.13;;;1.87;;
16502;SDS011;53067;48.114;11.694;2023-05-17T10:46:52;2.27;;;1.77;;
16502;SDS011;53067;48.114;11.694;2023-05-17T10:49:40;3.90;;;2.10;;
16502;SDS011;53067;48.114;11.694;2023-05-17T10:51:57;2.63;;;2.00;;
16502;SDS011;53067;48.114;11.694;2023-05-17T10:54:37;2.80;;;1.40;;
16502;SDS011;53067;48.114;11.694;2023-05-17T10:57:07;3.03;;;1.87;;
16502;SDS011;53067;48.114;11.694;2023-05-17T10:59:37;4.97;;;1.97;;
16502;SDS011;53067;48.114;11.694;2023-05-17T11:02:07;2.20;;;1.60;;
16502;SDS011;53067;48.114;11.694;2023-05-17T11:04:42;3.00;;;1.90;;
16502;SDS011;53067;48.114;11.694;2023-05-17T11:09:54;2.57;;;1.77;;
16502;SDS011;53067;48.114;11.694;2023-05-17T11:12:40;3.77;;;1.60;;
16502;SDS011;53067;48.114;11.694;2023-05-17T11:15:09;2.23;;;1.90;;
16502;SDS011;53067;48.114;11.694;2023-05-17T11:23:01;1.77;;;1.60;;
16502;SDS011;53067;48.114;11.694;2023-05-17T11:25:36;4.42;;;1.90;;
16502;SDS011;53067;48.114;11.694;2023-05-17T11:28:16;2.83;;;1.60;;
16502;SDS011;53067;48.114;11.694;2023-05-17T11:30:38;4.37;;;1.60;;
16502;SDS011;53067;48.114;11.694;2023-05-17T11:33:09;2.17;;;1.40;;
16502;SDS011;53067;48.114;11.694;2023-05-17T11:35:41;2.30;;;1.50;;
16502;SDS011;53067;48.114;11.694;2023-05-17T11:38:22;1.63;;;1.53;;
16502;SDS011;53067;48.114;11.694;2023-05-17T11:40:52;1.83;;;1.40;;
16502;SDS011;53067;48.114;11.694;2023-05-17T11:43:22;1.40;;;1.23;;
16502;SDS011;53067;48.114;11.694;2023-05-17T11:45:56;1.03;;;1.00;;
16502;SDS011;53067;48.114;11.694;2023-05-17T11:48:24;1.93;;;1.40;;
16502;SDS011;53067;48.114;11.694;2023-05-17T11:50:53;3.83;;;1.45;;
16502;SDS011;53067;48.114;11.694;2023-05-17T11:53:21;1.63;;;1.00;;
16502;SDS011;53067;48.114;11.694;2023-05-17T11:55:51;1.03;;;0.90;;
16502;SDS011;53067;48.114;11.694;2023-05-17T11:58:22;1.30;;;0.83;;
16502;SDS011;53067;48.114;11.694;2023-05-17T12:00:57;0.90;;;0.80;;
16502;SDS011;53067;48.114;11.694;2023-05-17T12:03:23;1.03;;;1.00;;
16502;SDS011;53067;48.114;11.694;2023-05-17T12:06:10;1.43;;;0.80;;
16502;SDS011;53067;48.114;11.694;2023-05-17T12:08:42;1.20;;;1.10;;
16502;SDS011;53067;48.114;11.694;2023-05-17T12:11:17;1.10;;;1.00;;
16502;SDS011;53067;48.114;11.694;2023-05-17T12:13:42;1.15;;;0.90;;
16502;SDS011;53067;48.114;11.694;2023-05-17T12:16:12;2.33;;;1.02;;
16502;SDS011;53067;48.114;11.694;2023-05-17T12:18:46;2.35;;;1.10;;
16502;SDS011;53067;48.114;11.694;2023-05-17T12:21:15;1.10;;;1.00;;
16502;SDS011;53067;48.114;11.694;2023-05-17T12:23:45;1.55;;;1.12;;
16502;SDS011;53067;48.114;11.694;2023-05-17T12:26:18;1.57;;;1.25;;
16502;SDS011;53067;48.114;11.694;2023-05-17T12:28:57;1.17;;;0.88;;
16502;SDS011;53067;48.114;11.694;2023-05-17T12:31:26;1.02;;;0.93;;
16502;SDS011;53067;48.114;11.694;2023-05-17T12:34:05;1.80;;;0.88;;
16502;SDS011;53067;48.114;11.694;2023-05-17T12:36:38;2.22;;;0.98;;
16502;SDS011;53067;48.114;11.694;2023-05-17T12:39:06;1.55;;;0.90;;
16502;SDS011;53067;48.114;11.694;2023-05-17T12:41:35;1.12;;;1.10;;
16502;SDS011;53067;48.114;11.694;2023-05-17T12:44:03;1.32;;;1.20;;
16502;SDS011;53067;48.114;11.694;2023-05-17T12:46:34;1.17;;;0.93;;
16502;SDS011;53067;48.114;11.694;2023-05-17T12:49:07;3.98;;;1.30;;
16502;SDS011;53067;48.114;11.694;2023-05-17T12:51:44;1.12;;;1.02;;
16502;SDS011;53067;48.114;11.694;2023-05-17T12:54:28;1.52;;;1.32;;
16502;SDS011;53067;48.114;11.694;2023-05-17T12:56:55;2.75;;;1.35;;
16502;SDS011;53067;48.114;11.694;2023-05-17T12:59:23;2.45;;;1.40;;
16502;SDS011;53067;48.114;11.694;2023-05-17T13:01:54;2.25;;;1.32;;
16502;SDS011;53067;48.114;11.694;2023-05-17T13:04:29;1.17;;;1.07;;
16502;SDS011;53067;48.114;11.694;2023-05-17T13:07:03;1.90;;;1.47;;
16502;SDS011;53067;48.114;11.694;2023-05-17T13:09:28;2.77;;;1.57;;
16502;SDS011;53067;48.114;11.694;2023-05-17T13:11:57;2.37;;;1.95;;
16502;SDS011;53067;48.114;11.694;2023-05-17T13:14:36;2.22;;;1.75;;
16502;SDS011;53067;48.114;11.694;2023-05-17T13:17:17;1.85;;;1.35;;
16502;SDS011;53067;48.114;11.694;2023-05-17T13:19:47;2.45;;;1.57;;
16502;SDS011;53067;48.114;11.694;2023-05-17T13:22:15;1.55;;;1.27;;
16502;SDS011;53067;48.114;11.694;2023-05-17T13:24:43;2.98;;;1.22;;
16502;SDS011;53067;48.114;11.694;2023-05-17T13:27:10;2.12;;;1.60;;
16502;SDS011;53067;48.114;11.694;2023-05-17T13:29:39;1.50;;;1.40;;
16502;SDS011;53067;48.114;11.694;2023-05-17T13:32:08;1.70;;;1.60;;
16502;SDS011;53067;48.114;11.694;2023-05-17T13:34:37;3.00;;;1.95;;
16502;SDS011;53067;48.114;11.694;2023-05-17T13:37:05;2.02;;;1.52;;
16502;SDS011;53067;48.114;11.694;2023-05-17T13:39:33;1.75;;;1.65;;
16502;SDS011;53067;48.114;11.694;2023-05-17T13:42:01;1.90;;;1.80;;
16502;SDS011;53067;48.114;11.694;2023-05-17T13:44:29;1.80;;;1.70;;
16502;SDS011;53067;48.114;11.694;2023-05-17T13:46:56;1.62;;;1.52;;
16502;SDS011;53067;48.114;11.694;2023-05-17T13:49:24;1.80;;;1.57;;
16502;SDS011;53067;48.114;11.694;2023-05-17T13:51:53;1.55;;;1.45;;
16502;SDS011;53067;48.114;11.694;2023-05-17T13:54:21;1.85;;;1.60;;
16502;SDS011;53067;48.114;11.694;2023-05-17T13:56:48;1.90;;;1.80;;
16502;SDS011;53067;48.114;11.694;2023-05-17T13:59:16;4.92;;;2.00;;
16502;SDS011;53067;48.114;11.694;2023-05-17T14:01:44;2.22;;;1.90;;
16502;SDS011;53067;48.114;11.694;2023-05-17T14:04:11;2.12;;;1.92;;
16502;SDS011;53067;48.114;11.694;2023-05-17T14:06:40;2.80;;;2.33;;
16502;SDS011;53067;48.114;11.694;2023-05-17T14:09:08;2.30;;;2.10;;
16502;SDS011;53067;48.114;11.694;2023-05-17T14:11:36;2.70;;;1.80;;
16502;SDS011;53067;48.114;11.694;2023-05-17T14:14:05;2.25;;;1.90;;
16502;SDS011;53067;48.114;11.694;2023-05-17T14:16:33;2.20;;;1.90;;
16502;SDS011;53067;48.114;11.694;2023-05-17T14:19:02;3.02;;;2.10;;
16502;SDS011;53067;48.114;11.694;2023-05-17T14:21:29;2.10;;;2.00;;
16502;SDS011;53067;48.114;11.694;2023-05-17T14:23:57;1.65;;;1.55;;
16502;SDS011;53067;48.114;11.694;2023-05-17T14:26:25;2.22;;;2.02;;
16502;SDS011;53067;48.114;11.694;2023-05-17T14:28:52;3.33;;;1.72;;
16502;SDS011;53067;48.114;11.694;2023-05-17T14:31:20;2.40;;;2.20;;
16502;SDS011;53067;48.114;11.694;2023-05-17T14:33:47;2.40;;;1.98;;
16502;SDS011;53067;48.114;11.694;2023-05-17T14:36:15;1.98;;;1.60;;
16502;SDS011;53067;48.114;11.694;2023-05-17T14:38:42;2.05;;;1.75;;
16502;SDS011;53067;48.114;11.694;2023-05-17T14:41:10;2.08;;;1.98;;
16502;SDS011;53067;48.114;11.694;2023-05-17T14:43:38;2.15;;;1.82;;
16502;SDS011;53067;48.114;11.694;2023-05-17T14:46:05;3.08;;;2.00;;
16502;SDS011;53067;48.114;11.694;2023-05-17T14:48:33;1.70;;;1.60;;
16502;SDS011;53067;48.114;11.694;2023-05-17T14:51:01;2.40;;;1.80;;
16502;SDS011;53067;48.114;11.694;2023-05-17T14:53:28;2.40;;;1.42;;
16502;SDS011;53067;48.114;11.694;2023-05-17T14:55:56;2.47;;;1.90;;
16502;SDS011;53067;48.114;11.694;2023-05-17T14:58:24;2.72;;;2.02;;
16502;SDS011;53067;48.114;11.694;2023-05-17T15:00:53;2.05;;;1.85;;
16502;SDS011;53067;48.114;11.694;2023-05-17T15:03:24;2.67;;;1.77;;
16502;SDS011;53067;48.114;11.694;2023-05-17T15:05:55;4.53;;;2.15;;
16502;SDS011;53067;48.114;11.694;2023-05-17T15:08:23;2.33;;;2.10;;